Time;durP1;ratioP1;P1;durP2;ratioP2;P2;SDS_P1;SDS_P2;PMS_P1;PMS_P2;Temp;Humidity;BMP_temperature;BMP_pressure;BME280_temperature;BME280_humidity;BME280_pressure;Samples;Min_cycle;Max_cycle;Signal;HPM_P1;HPM_P2
2022/01/23 00:01:49;;;;;;;41.10;18.05;;;;;;;;;;5019647;27;106972;-71
2022/01/23 00:04:17;;;;;;;35.55;17.27;;;;;;;;;;5038814;27;107080;-71
2022/01/23 00:06:46;;;;;;;40.53;17.88;;;;;;;;;;5052509;27;107034;-71
2022/01/23 00:09:14;;;;;;;54.30;17.93;;;;;;;;;;5037659;27;108277;-71
2022/01/23 00:11:48;;;;;;;39.60;17.98;;;;;;;;;;5012019;27;105956;-71
2022/01/23 00:17:20;;;;;;;41.72;17.63;;;;;;;;;;5033603;27;107289;-70
2022/01/23 00:19:47;;;;;;;33.17;16.60;;;;;;;;;;5023660;27;106090;-70
2022/01/23 00:22:14;;;;;;;36.97;17.90;;;;;;;;;;5051574;27;106778;-70
2022/01/23 00:33:05;;;;;;;35.80;16.90;;;;;;;;;;5032468;27;106824;-71
2022/01/23 00:35:32;;;;;;;37.92;16.38;;;;;;;;;;5021030;27;106710;-71
2022/01/23 00:38:00;;;;;;;36.25;16.90;;;;;;;;;;5035129;27;106403;-71
2022/01/23 00:40:27;;;;;;;40.53;17.52;;;;;;;;;;5018889;27;106470;-71
2022/01/23 00:42:54;;;;;;;35.80;17.35;;;;;;;;;;5024318;27;108391;-71
2022/01/23 00:45:31;;;;;;;38.95;16.75;;;;;;;;;;5057006;27;109459;-71
2022/01/23 00:48:02;;;;;;;39.92;17.35;;;;;;;;;;5034437;27;106273;-70
2022/01/23 00:50:30;;;;;;;40.85;16.85;;;;;;;;;;5026825;27;107780;-71
2022/01/23 00:52:56;;;;;;;35.13;16.35;;;;;;;;;;5040959;27;107000;-69
2022/01/23 00:55:22;;;;;;;38.90;16.80;;;;;;;;;;5017689;27;106129;-70
2022/01/23 00:57:49;;;;;;;37.92;16.92;;;;;;;;;;5037408;27;106333;-69
2022/01/23 01:00:15;;;;;;;36.67;16.02;;;;;;;;;;5032198;27;105882;-70
2022/01/23 01:02:42;;;;;;;34.17;17.20;;;;;;;;;;5038240;27;105940;-69
2022/01/23 01:05:09;;;;;;;33.20;15.93;;;;;;;;;;5014893;27;107657;-71
2022/01/23 01:07:36;;;;;;;35.95;18.90;;;;;;;;;;5031774;27;106532;-71
2022/01/23 01:10:08;;;;;;;34.95;16.20;;;;;;;;;;5021919;27;106977;-71
2022/01/23 01:12:46;;;;;;;31.17;15.48;;;;;;;;;;5038256;27;109258;-71
2022/01/23 01:34:05;;;;;;;33.30;15.70;;;;;;;;;;5028395;27;108414;-71
2022/01/23 01:36:44;;;;;;;31.50;15.50;;;;;;;;;;5023899;27;105988;-71
2022/01/23 01:39:12;;;;;;;35.97;16.15;;;;;;;;;;5042385;27;107770;-71
2022/01/23 01:41:39;;;;;;;32.13;14.75;;;;;;;;;;5042024;27;105925;-71
2022/01/23 01:44:06;;;;;;;33.28;14.75;;;;;;;;;;5025787;27;108348;-70
2022/01/23 01:46:52;;;;;;;34.15;15.00;;;;;;;;;;5054504;27;108773;-71
2022/01/23 01:49:27;;;;;;;33.97;15.75;;;;;;;;;;5007618;27;107454;-71
2022/01/23 01:51:55;;;;;;;30.00;14.98;;;;;;;;;;5058099;27;108224;-71
2022/01/23 01:54:24;;;;;;;33.63;15.65;;;;;;;;;;5031933;27;107206;-71
2022/01/23 01:57:03;;;;;;;36.37;15.73;;;;;;;;;;5024892;27;107668;-73
2022/01/23 02:10:14;;;;;;;30.80;14.98;;;;;;;;;;4984338;28;106979;-70
2022/01/23 02:16:06;;;;;;;35.70;15.02;;;;;;;;;;4986559;28;109409;-71
2022/01/23 02:53:16;;;;;;;36.35;15.20;;;;;;;;;;4989293;28;108091;-71
2022/01/23 02:55:41;;;;;;;37.55;16.60;;;;;;;;;;5001676;28;106533;-71
2022/01/23 02:58:10;;;;;;;38.22;16.20;;;;;;;;;;4985943;28;108192;-72
2022/01/23 03:00:48;;;;;;;46.00;16.60;;;;;;;;;;4978352;28;108532;-71
2022/01/23 03:03:57;;;;;;;34.47;16.70;;;;;;;;;;4926769;28;106072;-71
2022/01/23 03:25:43;;;;;;;39.20;16.30;;;;;;;;;;4984457;28;106307;-72
2022/01/23 03:33:30;;;;;;;38.85;16.05;;;;;;;;;;4984358;28;106947;-69
2022/01/23 03:35:56;;;;;;;37.22;16.20;;;;;;;;;;4991785;28;106610;-71
2022/01/23 03:38:23;;;;;;;40.80;15.98;;;;;;;;;;4992802;28;107404;-69
2022/01/23 03:40:49;;;;;;;36.00;16.92;;;;;;;;;;4991322;28;106075;-71
2022/01/23 03:43:22;;;;;;;44.85;16.35;;;;;;;;;;4990043;28;106155;-70
2022/01/23 03:50:45;;;;;;;39.13;17.97;;;;;;;;;;4973081;28;109568;-70
2022/01/23 03:53:18;;;;;;;40.55;15.02;;;;;;;;;;4988608;28;106249;-71
2022/01/23 03:55:44;;;;;;;40.10;17.35;;;;;;;;;;4991630;28;106855;-71
2022/01/23 03:58:11;;;;;;;38.38;16.05;;;;;;;;;;4988025;28;108952;-71
2022/01/23 04:00:39;;;;;;;40.60;17.55;;;;;;;;;;4986271;28;106253;-71
2022/01/23 04:03:06;;;;;;;44.90;18.20;;;;;;;;;;4984011;28;109125;-70
2022/01/23 04:05:33;;;;;;;39.75;16.58;;;;;;;;;;4987442;28;106697;-71
2022/01/23 04:08:02;;;;;;;46.05;17.80;;;;;;;;;;4987859;28;106979;-71
2022/01/23 04:10:28;;;;;;;39.08;16.05;;;;;;;;;;4987644;28;107611;-71
2022/01/23 04:13:11;;;;;;;39.50;16.58;;;;;;;;;;4987939;28;106554;-71
2022/01/23 04:34:54;;;;;;;41.33;17.25;;;;;;;;;;5001139;28;107499;-69
2022/01/23 04:45:45;;;;;;;44.20;16.50;;;;;;;;;;4989174;28;106381;-69
2022/01/23 04:48:52;;;;;;;46.13;16.67;;;;;;;;;;4993996;28;109770;-69
2022/01/23 04:59:36;;;;;;;39.38;16.35;;;;;;;;;;4987882;28;108693;-69
2022/01/23 05:04:51;;;;;;;45.13;16.60;;;;;;;;;;4989179;28;105963;-69
2022/01/23 05:07:47;;;;;;;38.03;15.85;;;;;;;;;;4969414;28;108908;-69
2022/01/23 05:10:16;;;;;;;36.90;14.88;;;;;;;;;;4983524;28;109528;-69
2022/01/23 05:12:48;;;;;;;37.10;16.35;;;;;;;;;;4985292;28;106841;-69
2022/01/23 05:15:15;;;;;;;41.15;15.85;;;;;;;;;;4983894;28;106366;-70
2022/01/23 05:17:41;;;;;;;40.95;16.02;;;;;;;;;;4982561;28;105651;-69
2022/01/23 05:20:08;;;;;;;46.67;16.95;;;;;;;;;;4978971;28;109152;-70
2022/01/23 05:22:41;;;;;;;47.78;17.25;;;;;;;;;;4986304;28;109550;-69
2022/01/23 05:25:18;;;;;;;44.85;16.27;;;;;;;;;;4989383;28;106823;-72
2022/01/23 05:27:46;;;;;;;36.63;15.55;;;;;;;;;;4982065;28;107112;-69
2022/01/23 05:30:13;;;;;;;43.20;17.10;;;;;;;;;;4986786;28;107310;-70
2022/01/23 05:32:41;;;;;;;40.97;16.00;;;;;;;;;;4980115;28;107627;-69
2022/01/23 05:35:09;;;;;;;46.45;16.05;;;;;;;;;;4984905;28;107571;-70
2022/01/23 05:37:37;;;;;;;40.22;16.25;;;;;;;;;;4987664;28;107038;-69
2022/01/23 05:40:06;;;;;;;35.78;15.60;;;;;;;;;;4986618;28;108586;-69
2022/01/23 05:42:36;;;;;;;38.25;15.15;;;;;;;;;;4977479;28;109437;-69
2022/01/23 05:45:03;;;;;;;37.28;15.10;;;;;;;;;;4986801;28;108182;-69
2022/01/23 05:47:49;;;;;;;36.58;14.68;;;;;;;;;;4985048;28;106595;-70
2022/01/23 05:50:40;;;;;;;41.30;15.25;;;;;;;;;;4983625;28;108738;-69
2022/01/23 05:53:26;;;;;;;39.40;15.88;;;;;;;;;;4987267;28;106466;-69
2022/01/23 05:56:11;;;;;;;32.38;14.02;;;;;;;;;;4990705;28;106446;-69
2022/01/23 05:58:54;;;;;;;39.25;14.68;;;;;;;;;;4972796;28;106108;-69
2022/01/23 06:01:26;;;;;;;43.65;15.57;;;;;;;;;;4986317;28;108158;-70
2022/01/23 06:03:59;;;;;;;39.60;15.45;;;;;;;;;;4987384;28;107489;-70
2022/01/23 06:06:36;;;;;;;40.70;15.98;;;;;;;;;;4985135;28;106628;-69
2022/01/23 06:09:02;;;;;;;44.42;16.80;;;;;;;;;;4986686;28;109445;-69
2022/01/23 06:11:28;;;;;;;46.75;17.70;;;;;;;;;;4985237;28;106453;-69
2022/01/23 06:13:55;;;;;;;50.35;17.38;;;;;;;;;;4968445;28;106250;-70
2022/01/23 06:16:21;;;;;;;45.13;17.40;;;;;;;;;;4971482;28;108491;-70
2022/01/23 06:19:06;;;;;;;40.25;16.83;;;;;;;;;;4988037;28;106024;-70
2022/01/23 06:21:51;;;;;;;38.90;15.57;;;;;;;;;;4985762;28;105776;-69
2022/01/23 06:24:45;;;;;;;37.97;15.88;;;;;;;;;;4964976;28;106678;-69
2022/01/23 06:27:27;;;;;;;38.03;16.13;;;;;;;;;;4985538;28;105882;-70
2022/01/23 06:29:53;;;;;;;43.30;17.58;;;;;;;;;;4984027;28;108279;-71
2022/01/23 06:32:20;;;;;;;42.50;16.52;;;;;;;;;;4986426;28;109291;-69
2022/01/23 06:34:46;;;;;;;45.03;16.35;;;;;;;;;;4984556;28;107189;-69
2022/01/23 06:37:13;;;;;;;45.35;16.95;;;;;;;;;;4986787;28;106466;-69
2022/01/23 06:39:39;;;;;;;42.97;16.50;;;;;;;;;;4984126;28;109455;-70
2022/01/23 06:42:09;;;;;;;;;;;;;;;;;;4988704;28;106211;-69
2022/01/23 06:44:53;;;;;;;43.13;16.23;;;;;;;;;;4984248;28;109068;-70
2022/01/23 06:47:20;;;;;;;37.90;16.33;;;;;;;;;;4985698;28;106093;-70
2022/01/23 06:49:46;;;;;;;43.13;16.70;;;;;;;;;;4987642;28;108931;-72
2022/01/23 06:52:14;;;;;;;45.28;17.02;;;;;;;;;;4986684;28;109806;-69
2022/01/23 06:54:46;;;;;;;39.70;15.98;;;;;;;;;;4985576;28;105981;-69
2022/01/23 06:57:13;;;;;;;41.38;17.02;;;;;;;;;;4971918;28;108115;-69
2022/01/23 06:59:40;;;;;;;40.95;16.25;;;;;;;;;;4985203;28;108654;-69
2022/01/23 07:02:45;;;;;;;43.47;16.85;;;;;;;;;;4959822;28;106515;-69
2022/01/23 07:05:35;;;;;;;40.33;15.85;;;;;;;;;;4991036;28;107827;-69
2022/01/23 07:08:10;;;;;;;36.95;15.68;;;;;;;;;;4990517;28;106979;-70
2022/01/23 07:10:44;;;;;;;32.42;15.35;;;;;;;;;;4990748;28;108711;-70
2022/01/23 07:13:29;;;;;;;40.80;17.67;;;;;;;;;;4989883;28;107090;-69
2022/01/23 07:16:08;;;;;;;40.03;16.40;;;;;;;;;;4991236;28;106497;-70
2022/01/23 07:18:57;;;;;;;;;;;;;;;;;;4962688;28;106304;-69
2022/01/23 07:21:27;;;;;;;36.95;15.50;;;;;;;;;;4983877;28;108463;-69
2022/01/23 07:23:54;;;;;;;46.83;17.73;;;;;;;;;;4987606;28;105657;-72
2022/01/23 07:26:24;;;;;;;40.45;16.92;;;;;;;;;;4990513;28;108581;-70
2022/01/23 07:29:00;;;;;;;41.05;17.33;;;;;;;;;;4992212;28;108442;-70
2022/01/23 07:34:05;;;;;;;43.10;17.60;;;;;;;;;;4988350;28;106985;-69
2022/01/23 07:36:32;;;;;;;44.63;15.93;;;;;;;;;;4988307;28;106178;-69
2022/01/23 07:39:01;;;;;;;40.83;16.50;;;;;;;;;;4989574;28;108558;-69
2022/01/23 07:41:36;;;;;;;41.25;16.60;;;;;;;;;;4983034;28;109604;-69
2022/01/23 07:44:17;;;;;;;43.60;17.15;;;;;;;;;;4989811;28;106415;-70
2022/01/23 07:46:54;;;;;;;43.10;18.35;;;;;;;;;;4987006;28;106841;-70
2022/01/23 07:49:41;;;;;;;40.55;16.67;;;;;;;;;;4992692;28;108044;-70
2022/01/23 07:52:22;;;;;;;45.22;17.25;;;;;;;;;;4986507;28;109568;-68
2022/01/23 07:55:15;;;;;;;40.53;16.73;;;;;;;;;;4984428;28;109313;-70
2022/01/23 07:58:14;;;;;;;41.13;15.98;;;;;;;;;;4954898;28;105883;-68
2022/01/23 08:01:04;;;;;;;35.28;13.90;;;;;;;;;;4986476;28;107296;-68
2022/01/23 08:03:35;;;;;;;39.63;14.48;;;;;;;;;;4987053;28;109128;-69
2022/01/23 08:06:12;;;;;;;36.20;14.30;;;;;;;;;;4978751;28;106397;-69
2022/01/23 08:08:39;;;;;;;32.67;14.32;;;;;;;;;;4988002;28;106836;-69
2022/01/23 08:11:08;;;;;;;33.03;15.23;;;;;;;;;;4983615;28;107824;-69
2022/01/23 08:13:34;;;;;;;35.30;14.38;;;;;;;;;;4994260;28;106422;-69
2022/01/23 08:16:01;;;;;;;34.08;14.50;;;;;;;;;;4981758;28;107950;-69
2022/01/23 08:18:27;;;;;;;36.13;14.23;;;;;;;;;;4979493;28;106282;-68
2022/01/23 08:20:54;;;;;;;40.78;16.80;;;;;;;;;;4983519;28;107134;-67
2022/01/23 08:23:21;;;;;;;37.00;15.77;;;;;;;;;;4983251;28;109610;-68
2022/01/23 08:25:47;;;;;;;36.50;15.50;;;;;;;;;;4984002;28;107367;-68
2022/01/23 08:28:14;;;;;;;38.78;14.18;;;;;;;;;;4990088;28;107924;-70
2022/01/23 08:30:41;;;;;;;38.58;14.13;;;;;;;;;;4983872;28;106534;-71
2022/01/23 08:33:08;;;;;;;32.33;13.90;;;;;;;;;;4974962;28;106608;-69
2022/01/23 08:35:34;;;;;;;30.48;13.57;;;;;;;;;;4992721;28;106511;-69
2022/01/23 08:38:01;;;;;;;32.63;14.10;;;;;;;;;;4978069;28;106933;-69
2022/01/23 08:40:46;;;;;;;39.10;15.57;;;;;;;;;;4986374;28;105801;-69
2022/01/23 08:43:14;;;;;;;40.75;15.23;;;;;;;;;;4986908;28;106480;-69
2022/01/23 08:45:40;;;;;;;38.40;15.10;;;;;;;;;;4987508;28;106106;-68
2022/01/23 08:48:07;;;;;;;41.05;14.98;;;;;;;;;;4987944;28;107319;-69
2022/01/23 08:50:33;;;;;;;37.20;14.75;;;;;;;;;;4980504;28;106682;-69
2022/01/23 08:53:00;;;;;;;35.40;15.15;;;;;;;;;;4989788;28;106044;-69
2022/01/23 08:55:26;;;;;;;39.28;15.00;;;;;;;;;;4989503;28;106215;-70
2022/01/23 08:57:53;;;;;;;37.20;14.52;;;;;;;;;;4992734;28;107631;-69
2022/01/23 09:00:27;;;;;;;34.83;14.38;;;;;;;;;;4976332;28;106788;-70
2022/01/23 09:02:55;;;;;;;32.25;14.73;;;;;;;;;;4986066;28;107371;-72
2022/01/23 09:05:23;;;;;;;30.10;14.00;;;;;;;;;;4978384;28;107125;-68
2022/01/23 09:07:49;;;;;;;38.95;14.15;;;;;;;;;;4979369;28;106279;-70
2022/01/23 09:10:24;;;;;;;35.45;14.82;;;;;;;;;;4979405;28;106770;-70
2022/01/23 09:15:44;;;;;;;28.45;13.20;;;;;;;;;;4966434;28;108391;-70
2022/01/23 09:18:11;;;;;;;37.60;14.73;;;;;;;;;;4982936;28;107344;-70
2022/01/23 09:20:37;;;;;;;38.08;16.02;;;;;;;;;;4983096;28;106350;-70
2022/01/23 09:23:03;;;;;;;39.90;16.95;;;;;;;;;;4990909;28;106633;-70
2022/01/23 09:25:30;;;;;;;43.45;16.17;;;;;;;;;;4982279;28;106253;-69
2022/01/23 09:27:57;;;;;;;34.78;15.45;;;;;;;;;;4988597;28;106770;-73
2022/01/23 09:30:24;;;;;;;34.95;16.27;;;;;;;;;;4984472;28;107758;-73
2022/01/23 09:32:50;;;;;;;33.38;14.55;;;;;;;;;;4983200;28;107560;-75
2022/01/23 09:35:17;;;;;;;35.25;15.57;;;;;;;;;;4987268;28;107064;-74
2022/01/23 09:37:44;;;;;;;34.75;13.98;;;;;;;;;;4984778;28;106791;-73
2022/01/23 09:40:11;;;;;;;33.17;14.25;;;;;;;;;;4985842;28;106509;-74
2022/01/23 09:42:58;;;;;;;34.83;13.80;;;;;;;;;;4986580;28;107380;-78
2022/01/23 09:45:26;;;;;;;27.60;12.63;;;;;;;;;;4981609;28;106954;-74
2022/01/23 09:47:55;;;;;;;28.33;13.32;;;;;;;;;;4983334;28;106727;-73
2022/01/23 09:50:22;;;;;;;29.63;12.97;;;;;;;;;;4985703;28;107498;-70
2022/01/23 09:52:52;;;;;;;30.90;13.23;;;;;;;;;;4989282;28;106029;-71
2022/01/23 09:55:25;;;;;;;27.17;12.75;;;;;;;;;;4987362;28;106676;-71
2022/01/23 09:57:52;;;;;;;29.03;12.77;;;;;;;;;;4988245;28;106269;-71
2022/01/23 10:00:20;;;;;;;26.08;12.43;;;;;;;;;;4984534;28;106348;-71
2022/01/23 10:02:50;;;;;;;28.27;12.23;;;;;;;;;;4984085;28;106707;-71
2022/01/23 10:05:17;;;;;;;26.95;12.63;;;;;;;;;;4980988;28;107806;-72
2022/01/23 10:07:44;;;;;;;22.83;11.52;;;;;;;;;;4984385;28;106816;-71
2022/01/23 10:10:18;;;;;;;27.05;11.20;;;;;;;;;;4989388;28;106430;-72
2022/01/23 10:12:50;;;;;;;24.83;10.80;;;;;;;;;;4987844;28;106355;-72
2022/01/23 10:15:18;;;;;;;24.48;10.90;;;;;;;;;;4985755;28;107147;-72
2022/01/23 10:17:44;;;;;;;23.13;11.00;;;;;;;;;;4986968;28;107862;-72
2022/01/23 10:20:12;;;;;;;21.58;9.75;;;;;;;;;;4985529;28;106232;-71
2022/01/23 10:22:40;;;;;;;23.02;10.57;;;;;;;;;;4982036;28;106899;-71
2022/01/23 10:25:08;;;;;;;21.02;10.80;;;;;;;;;;4988231;28;107334;-72
2022/01/23 10:27:49;;;;;;;21.15;9.70;;;;;;;;;;4989008;28;106862;-72
2022/01/23 10:30:20;;;;;;;18.55;9.90;;;;;;;;;;4990332;28;107511;-72
2022/01/23 10:32:58;;;;;;;21.35;10.20;;;;;;;;;;4990182;28;106101;-72
2022/01/23 10:35:25;;;;;;;19.83;9.70;;;;;;;;;;4998458;28;106281;-73
2022/01/23 10:37:52;;;;;;;19.15;9.88;;;;;;;;;;4991347;28;106277;-73
2022/01/23 10:40:23;;;;;;;18.33;9.63;;;;;;;;;;4986492;28;106312;-72
2022/01/23 10:46:34;;;;;;;21.25;11.00;;;;;;;;;;4991074;28;107105;-72
2022/01/23 10:48:37;;;;;;;22.60;10.60;;;;;;;;;;4993133;28;105887;-73
2022/01/23 10:51:16;;;;;;;17.25;8.18;;;;;;;;;;4981613;28;106625;-73
2022/01/23 10:54:06;;;;;;;18.88;9.35;;;;;;;;;;4989869;28;107538;-73
2022/01/23 10:56:39;;;;;;;20.30;10.10;;;;;;;;;;4978217;28;107307;-73
2022/01/23 10:59:05;;;;;;;23.23;10.02;;;;;;;;;;4990862;28;106600;-73
2022/01/23 11:01:32;;;;;;;22.55;10.35;;;;;;;;;;4989502;28;106410;-73
2022/01/23 11:04:12;;;;;;;27.35;10.52;;;;;;;;;;4991195;28;106715;-73
2022/01/23 11:06:52;;;;;;;18.98;9.32;;;;;;;;;;4988683;28;106957;-73
2022/01/23 11:09:18;;;;;;;;;;;;;;;;;;4989410;28;106602;-74
2022/01/23 11:11:47;;;;;;;21.23;10.43;;;;;;;;;;4986496;28;136367;-74
2022/01/23 11:19:46;;;;;;;19.40;8.20;;;;;;;;;;4987948;28;106431;-77
2022/01/23 11:22:18;;;;;;;15.05;7.22;;;;;;;;;;4984133;28;105588;-71
2022/01/23 11:24:45;;;;;;;18.10;8.43;;;;;;;;;;4990262;28;106633;-72
2022/01/23 11:27:12;;;;;;;17.20;8.30;;;;;;;;;;4989652;28;106715;-72
2022/01/23 11:30:08;;;;;;;17.83;9.07;;;;;;;;;;4988111;28;106654;-72
2022/01/23 11:32:39;;;;;;;18.75;9.85;;;;;;;;;;4974032;28;106888;-72
2022/01/23 11:35:09;;;;;;;19.05;9.32;;;;;;;;;;4991716;28;106610;-72
2022/01/23 11:37:39;;;;;;;17.85;8.98;;;;;;;;;;4984051;28;107147;-72
2022/01/23 11:40:21;;;;;;;;;;;;;;;;;;4984150;28;107832;-70
2022/01/23 11:53:45;;;;;;;19.95;9.50;;;;;;;;;;4980956;28;106452;-70
2022/01/23 11:54:10;;;;;;;20.00;8.20;;;;;;;;;;4999543;28;108201;-71
2022/01/23 11:56:42;;;;;;;16.73;7.60;;;;;;;;;;4985478;28;109228;-70
2022/01/23 11:59:32;;;;;;;18.75;7.97;;;;;;;;;;4979091;28;106094;-69
2022/01/23 12:02:11;;;;;;;13.43;6.80;;;;;;;;;;4975723;28;107753;-69
2022/01/23 12:04:39;;;;;;;15.90;7.30;;;;;;;;;;4987162;28;105824;-72
2022/01/23 12:07:10;;;;;;;13.88;6.60;;;;;;;;;;4987145;28;109565;-67
2022/01/23 12:09:37;;;;;;;14.60;6.55;;;;;;;;;;4989795;28;106949;-69
2022/01/23 12:12:32;;;;;;;16.75;7.18;;;;;;;;;;4988714;28;106743;-69
2022/01/23 12:18:16;;;;;;;14.88;6.53;;;;;;;;;;4989257;28;107566;-70
2022/01/23 12:20:44;;;;;;;12.15;6.18;;;;;;;;;;4988261;28;105755;-70
2022/01/23 12:23:10;;;;;;;11.55;6.55;;;;;;;;;;4986973;28;106421;-71
2022/01/23 12:25:48;;;;;;;14.82;7.38;;;;;;;;;;4985480;28;106176;-72
2022/01/23 12:28:20;;;;;;;18.60;7.38;;;;;;;;;;4983062;28;106238;-72
2022/01/23 12:30:50;;;;;;;13.05;6.57;;;;;;;;;;4960348;28;109548;-73
2022/01/23 12:33:16;;;;;;;13.70;6.85;;;;;;;;;;4983417;28;106452;-72
2022/01/23 12:35:44;;;;;;;12.10;6.28;;;;;;;;;;4984865;28;106371;-71
2022/01/23 12:38:12;;;;;;;11.73;6.35;;;;;;;;;;4984633;28;105916;-74
2022/01/23 12:40:43;;;;;;;13.05;6.55;;;;;;;;;;4990238;28;105584;-72
2022/01/23 12:43:17;;;;;;;13.05;6.70;;;;;;;;;;4992573;28;107820;-74
2022/01/23 12:45:49;;;;;;;;;;;;;;;;;;4980388;28;106266;-72
2022/01/23 12:48:25;;;;;;;11.63;5.68;;;;;;;;;;4988482;28;134889;-74
2022/01/23 12:50:56;;;;;;;12.93;6.38;;;;;;;;;;4989005;28;107754;-72
2022/01/23 12:53:33;;;;;;;15.85;7.00;;;;;;;;;;4983294;28;106862;-72
2022/01/23 12:56:09;;;;;;;13.80;6.72;;;;;;;;;;4984804;28;106639;-72
2022/01/23 12:58:35;;;;;;;11.70;6.28;;;;;;;;;;4987397;28;107225;-71
2022/01/23 13:01:07;;;;;;;14.75;7.00;;;;;;;;;;4990032;28;106468;-72
2022/01/23 13:03:36;;;;;;;15.52;8.10;;;;;;;;;;4987039;28;106911;-72
2022/01/23 13:06:07;;;;;;;18.20;8.43;;;;;;;;;;4982858;28;107769;-71
2022/01/23 13:08:37;;;;;;;14.98;7.78;;;;;;;;;;4987499;28;105859;-73
2022/01/23 13:31:51;;;;;;;14.05;6.88;;;;;;;;;;4981029;28;107349;-73
2022/01/23 13:34:27;;;;;;;14.77;7.47;;;;;;;;;;4985536;28;106831;-73
2022/01/23 13:36:59;;;;;;;14.18;6.82;;;;;;;;;;4959426;28;108720;-73
2022/01/23 13:39:29;;;;;;;16.45;8.25;;;;;;;;;;4986001;28;108082;-73
2022/01/23 13:41:59;;;;;;;14.07;7.18;;;;;;;;;;4982683;28;106455;-73
2022/01/23 13:52:56;;;;;;;14.60;6.50;;;;;;;;;;4986245;28;108819;-72
2022/01/23 13:58:33;;;;;;;;;;;;;;;;;;4954816;28;107328;-73
2022/01/23 14:01:02;;;;;;;14.18;6.50;;;;;;;;;;4984597;28;136202;-72
2022/01/23 14:03:28;;;;;;;12.15;6.25;;;;;;;;;;4987549;28;106204;-72
2022/01/23 14:05:55;;;;;;;12.10;6.28;;;;;;;;;;4986533;28;107579;-73
2022/01/23 14:08:21;;;;;;;11.32;6.30;;;;;;;;;;5004231;28;109095;-72
2022/01/23 14:10:51;;;;;;;14.13;6.35;;;;;;;;;;4982699;28;112558;-72
2022/01/23 14:13:19;;;;;;;13.27;5.88;;;;;;;;;;4975874;28;108594;-72
2022/01/23 14:15:47;;;;;;;13.02;6.20;;;;;;;;;;4997002;28;108324;-73
2022/01/23 14:18:17;;;;;;;13.55;6.63;;;;;;;;;;4981761;28;107767;-73
2022/01/23 14:20:45;;;;;;;16.67;6.20;;;;;;;;;;4979919;28;107954;-72
2022/01/23 14:23:20;;;;;;;13.75;6.72;;;;;;;;;;4979646;28;106925;-73
2022/01/23 14:25:48;;;;;;;16.25;6.63;;;;;;;;;;4980549;28;107835;-74
2022/01/23 14:28:17;;;;;;;14.45;7.15;;;;;;;;;;4979954;28;108753;-72
2022/01/23 14:30:45;;;;;;;14.10;6.90;;;;;;;;;;4980505;28;106341;-73
2022/01/23 14:33:13;;;;;;;15.07;7.30;;;;;;;;;;4980923;28;106836;-75
2022/01/23 14:35:39;;;;;;;19.13;7.68;;;;;;;;;;4980949;28;106293;-73
2022/01/23 14:38:10;;;;;;;16.83;7.60;;;;;;;;;;4976814;28;107167;-74
2022/01/23 14:40:38;;;;;;;20.30;7.75;;;;;;;;;;4978576;28;107258;-73
2022/01/23 14:43:06;;;;;;;13.20;7.32;;;;;;;;;;4984853;28;106778;-72
2022/01/23 14:45:35;;;;;;;14.75;7.13;;;;;;;;;;4987150;28;106677;-73
2022/01/23 14:48:02;;;;;;;14.27;7.43;;;;;;;;;;4983979;28;106299;-72
2022/01/23 14:50:31;;;;;;;14.98;7.07;;;;;;;;;;4979897;28;106483;-73
2022/01/23 14:53:04;;;;;;;13.93;7.60;;;;;;;;;;4985031;28;106868;-72
2022/01/23 14:55:30;;;;;;;14.35;7.40;;;;;;;;;;4984812;28;107937;-74
2022/01/23 14:58:00;;;;;;;14.27;7.28;;;;;;;;;;4989178;28;108224;-73
2022/01/23 15:00:28;;;;;;;14.07;7.00;;;;;;;;;;4980573;28;107719;-72
2022/01/23 15:02:55;;;;;;;15.55;7.85;;;;;;;;;;4981507;28;106247;-72
2022/01/23 15:05:22;;;;;;;15.80;8.32;;;;;;;;;;4980767;28;106995;-73
2022/01/23 15:07:48;;;;;;;17.98;8.27;;;;;;;;;;4980995;28;108685;-72
2022/01/23 15:10:15;;;;;;;16.13;8.60;;;;;;;;;;4983341;28;106172;-72
2022/01/23 15:12:41;;;;;;;16.98;8.48;;;;;;;;;;4983175;28;106293;-73
2022/01/23 15:15:08;;;;;;;16.45;7.90;;;;;;;;;;4980314;28;106340;-73
2022/01/23 15:17:34;;;;;;;17.40;9.27;;;;;;;;;;4988710;28;106692;-71
2022/01/23 15:20:01;;;;;;;18.40;9.60;;;;;;;;;;4988293;28;107014;-72
2022/01/23 15:22:27;;;;;;;19.77;9.82;;;;;;;;;;4988749;28;106722;-74
2022/01/23 15:24:54;;;;;;;18.42;9.20;;;;;;;;;;4989087;28;107685;-74
2022/01/23 15:27:21;;;;;;;17.20;9.05;;;;;;;;;;4986658;28;108221;-74
2022/01/23 15:29:47;;;;;;;15.80;7.55;;;;;;;;;;4989056;28;107676;-72
2022/01/23 15:32:14;;;;;;;16.42;8.85;;;;;;;;;;4988996;28;106685;-73
2022/01/23 15:34:41;;;;;;;16.27;7.57;;;;;;;;;;4986641;28;107309;-73
2022/01/23 15:37:07;;;;;;;18.73;8.50;;;;;;;;;;4987309;28;108731;-72
2022/01/23 15:39:34;;;;;;;17.95;9.05;;;;;;;;;;4986386;28;107622;-72
2022/01/23 15:42:00;;;;;;;16.02;8.38;;;;;;;;;;4991699;28;106289;-73
2022/01/23 15:44:27;;;;;;;17.52;8.73;;;;;;;;;;4987001;28;106420;-72
2022/01/23 15:46:54;;;;;;;21.23;8.38;;;;;;;;;;4988843;28;107856;-74
2022/01/23 15:49:20;;;;;;;15.75;8.07;;;;;;;;;;4986118;28;106300;-72
2022/01/23 15:51:47;;;;;;;19.67;8.27;;;;;;;;;;4988695;28;106204;-72
2022/01/23 15:54:18;;;;;;;15.27;7.63;;;;;;;;;;4989748;28;107343;-72
2022/01/23 15:56:47;;;;;;;16.42;7.72;;;;;;;;;;4984180;28;105758;-72
2022/01/23 15:59:17;;;;;;;20.73;9.48;;;;;;;;;;4987789;28;106528;-74
2022/01/23 16:01:46;;;;;;;29.77;14.32;;;;;;;;;;4986944;28;106670;-72
2022/01/23 16:04:13;;;;;;;22.35;11.65;;;;;;;;;;4991900;28;106608;-73
2022/01/23 16:06:40;;;;;;;21.10;9.65;;;;;;;;;;4984282;28;106649;-72
2022/01/23 16:09:07;;;;;;;17.45;9.00;;;;;;;;;;4985721;28;106248;-73
2022/01/23 16:11:34;;;;;;;20.15;9.70;;;;;;;;;;5002029;27;109565;-72
2022/01/23 16:14:00;;;;;;;19.58;9.38;;;;;;;;;;4988187;28;107868;-73
2022/01/23 16:16:27;;;;;;;23.55;10.43;;;;;;;;;;4984453;28;106142;-76
2022/01/23 16:18:54;;;;;;;19.08;9.20;;;;;;;;;;4987033;28;106543;-73
2022/01/23 16:21:21;;;;;;;23.52;10.50;;;;;;;;;;4986641;28;105963;-73
2022/01/23 16:23:48;;;;;;;19.55;9.43;;;;;;;;;;4991096;28;106247;-73
2022/01/23 16:26:17;;;;;;;21.38;9.60;;;;;;;;;;4983387;28;106148;-73
2022/01/23 16:28:44;;;;;;;23.17;9.98;;;;;;;;;;4984876;28;106933;-72
2022/01/23 16:31:10;;;;;;;24.10;9.98;;;;;;;;;;4985222;28;106496;-73
2022/01/23 16:33:38;;;;;;;22.05;10.35;;;;;;;;;;4987776;28;107719;-73
2022/01/23 16:36:06;;;;;;;22.80;10.45;;;;;;;;;;4988545;28;107443;-72
2022/01/23 16:38:33;;;;;;;23.55;11.27;;;;;;;;;;4984376;28;108530;-73
2022/01/23 16:40:59;;;;;;;22.30;10.60;;;;;;;;;;4983458;28;106969;-73
2022/01/23 16:43:27;;;;;;;19.42;9.85;;;;;;;;;;4986561;28;107362;-73
2022/01/23 16:45:54;;;;;;;22.77;10.40;;;;;;;;;;4991469;28;106665;-73
2022/01/23 16:48:21;;;;;;;25.30;11.20;;;;;;;;;;4985788;28;106967;-73
2022/01/23 16:50:53;;;;;;;21.75;11.13;;;;;;;;;;4985457;28;105905;-71
2022/01/23 16:53:19;;;;;;;24.23;11.68;;;;;;;;;;4983959;28;106503;-72
2022/01/23 16:55:46;;;;;;;25.58;12.02;;;;;;;;;;4984443;28;106062;-72
2022/01/23 16:58:12;;;;;;;28.65;11.70;;;;;;;;;;4987481;28;107400;-74
2022/01/23 17:00:39;;;;;;;23.08;11.88;;;;;;;;;;4979699;28;106935;-74
2022/01/23 17:03:07;;;;;;;23.63;10.50;;;;;;;;;;4985183;28;106580;-74
2022/01/23 17:05:34;;;;;;;24.27;11.40;;;;;;;;;;4986732;28;108835;-73
2022/01/23 17:08:00;;;;;;;28.85;13.02;;;;;;;;;;4991431;28;106775;-75
2022/01/23 17:10:26;;;;;;;27.15;12.63;;;;;;;;;;4985667;28;107259;-75
2022/01/23 17:12:53;;;;;;;29.30;12.50;;;;;;;;;;4986654;28;106965;-73
2022/01/23 17:15:19;;;;;;;27.42;12.77;;;;;;;;;;4985190;27;106619;-73
2022/01/23 17:17:46;;;;;;;30.00;14.52;;;;;;;;;;4982309;28;107234;-75
2022/01/23 17:20:13;;;;;;;27.67;12.85;;;;;;;;;;4982401;28;106675;-73
2022/01/23 17:22:39;;;;;;;30.83;14.52;;;;;;;;;;4983660;28;108683;-73
2022/01/23 17:25:06;;;;;;;29.15;13.43;;;;;;;;;;4987915;28;106829;-68
2022/01/23 17:27:32;;;;;;;26.80;13.15;;;;;;;;;;4978342;28;108052;-72
2022/01/23 17:30:00;;;;;;;32.60;13.52;;;;;;;;;;4990155;28;107229;-70
2022/01/23 17:32:26;;;;;;;30.20;13.25;;;;;;;;;;4985297;28;107298;-70
2022/01/23 17:35:12;;;;;;;26.17;12.82;;;;;;;;;;4985605;28;107402;-69
2022/01/23 17:37:39;;;;;;;27.83;13.27;;;;;;;;;;4977849;28;106405;-70
2022/01/23 17:40:06;;;;;;;29.67;12.98;;;;;;;;;;4985521;27;109838;-69
2022/01/23 17:42:32;;;;;;;28.10;12.90;;;;;;;;;;4982025;28;106474;-69
2022/01/23 17:44:59;;;;;;;27.45;13.40;;;;;;;;;;4982494;28;108838;-71
2022/01/23 17:50:15;;;;;;;36.13;13.63;;;;;;;;;;4983596;28;107640;-70
2022/01/23 17:52:43;;;;;;;29.77;13.25;;;;;;;;;;4980686;28;107278;-69
2022/01/23 17:55:10;;;;;;;32.30;13.55;;;;;;;;;;4983673;28;107106;-72
2022/01/23 17:57:36;;;;;;;30.40;14.05;;;;;;;;;;4979422;28;106795;-70
2022/01/23 18:00:04;;;;;;;28.30;14.57;;;;;;;;;;4982471;28;107941;-69